Flight Track Log - Related Links

Times and Time Zones

All times are in EDT time to prevent confusion due to time zone crossing. See the DAL2028 flight status page for this flight to view local times or setup timezone preferences in your user account.

Time Position Orientation Groundspeed Altitude Reporting Facility
EDT Latitude Longitude Course Direction KTS MPH feet Rate Location/Type
Thu 04:54:00 PM 28.4000 -81.3000 270° West 167 192 900  Level Orlando TRACON
Thu 04:55:25 PM 28.3500 -81.3667 230° Southwest 250 288 4,100 2,760 Climbing Orlando TRACON
Thu 04:56:00 PM 28.4167 -81.6966 270° West  Level FlightAware Approximate
Thu 04:56:30 PM 28.3333 -81.4500 257° West 255 293 7,800  Level Orlando TRACON
Thu 04:57:00 PM 28.4167 -81.8288 270° West  Level FlightAware Approximate
Thu 04:57:25 PM 28.3333 -81.5167 270° West 285 328 9,800  Level Orlando TRACON
Thu 04:58:00 PM 28.4167 -81.9610 270° West  Level FlightAware Approximate
Thu 04:58:25 PM 28.3333 -81.6167 270° West 328 377 12,100  Level Orlando TRACON
Thu 04:59:00 PM 28.4167 -82.0932 270° West  Level FlightAware Approximate
Thu 05:00:11 PM 28.3644 -81.8003 281° West 356 410 15,700  Level Jacksonville Center
Thu 05:01:11 PM 28.3944 -81.9156 287° West 361 415 18,400 2,500 Climbing Jacksonville Center
Thu 05:02:11 PM 28.4206 -82.0333 284° West 379 436 20,700 2,050 Climbing Jacksonville Center
Thu 05:03:11 PM 28.4294 -82.1608 275° West 393 452 22,500 2,000 Climbing Jacksonville Center
Thu 05:04:11 PM 28.4281 -82.2906 269° West 405 466 24,700 1,750 Climbing Jacksonville Center
Thu 05:05:11 PM 28.4100 -82.4206 261° West 415 478 26,000 850 Climbing Jacksonville Center
Thu 05:06:11 PM 28.4061 -82.5550 268° West 426 490 26,400 550 Climbing Jacksonville Center
Thu 05:07:11 PM 28.4981 -82.6397 321° Northwest 379 436 27,100 700 Climbing Jacksonville Center
Thu 05:08:11 PM 28.6194 -82.6892 340° North 404 465 27,800 1,200 Climbing Jacksonville Center
Thu 05:09:11 PM 28.7406 -82.7458 338° Northwest 433 498 29,500 1,700 Climbing Jacksonville Center
Thu 05:11:11 PM 28.9367 -82.9447 318° Northwest 466 536 32,900 1,633 Climbing Jacksonville Center
Thu 05:12:11 PM 29.0325 -83.0469 317° Northwest 466 536 34,400 1,500 Climbing Jacksonville Center
Thu 05:13:11 PM 29.1244 -83.1444 317° Northwest 461 531 35,900 800 Climbing Jacksonville Center
Thu 05:14:11 PM 29.2181 -83.2422 318° Northwest 461 531 36,000 50 Climbing Jacksonville Center
Thu 05:15:11 PM 29.3117 -83.3428 317° Northwest 456 525 36,000  Level Jacksonville Center
Thu 05:16:11 PM 29.4156 -83.4506 318° Northwest 451 519 36,000  Level Jacksonville Center
Thu 05:17:11 PM 29.5133 -83.5511 318° Northwest 456 525 36,000  Level Jacksonville Center
Thu 05:18:11 PM 29.6086 -83.6497 318° Northwest 456 525 36,000 200 Level Jacksonville Center
Thu 05:19:11 PM 29.7083 -83.7464 320° Northwest 467 537 36,400 650 Climbing Jacksonville Center
Thu 05:20:11 PM 29.8292 -83.7833 345° North 446 513 37,300 800 Climbing Jacksonville Center
Thu 05:21:11 PM 29.9564 -83.7989 354° North 441 507 38,000 350 Climbing Jacksonville Center
Thu 05:22:11 PM 30.0814 -83.8217 351° North 452 520 38,000  Level Jacksonville Center
Thu 05:23:11 PM 30.2108 -83.8419 352° North 452 520 38,000  Level Jacksonville Center
Thu 05:24:11 PM 30.3339 -83.8600 353° North 452 520 38,000  Level Jacksonville Center
Thu 05:25:11 PM 30.4569 -83.8831 351° North 452 520 38,000  Level Jacksonville Center
Thu 05:26:11 PM 30.5736 -83.9011 352° North 446 513 38,000  Level Jacksonville Center
Thu 05:27:11 PM 30.6925 -83.9217 352° North 428 493 38,000  Level Jacksonville Center
Thu 05:28:11 PM 30.8133 -83.9425 352° North 428 493 38,000  Level Jacksonville Center
Thu 05:29:11 PM 30.9364 -83.9631 352° North 428 493 38,000  Level Jacksonville Center
Thu 05:30:11 PM 31.0572 -83.9814 353° North 433 498 38,000  Level Jacksonville Center
Thu 05:31:11 PM 31.1825 -84.0022 352° North 433 498 38,000  Level Jacksonville Center
Thu 05:33:32 PM 31.4628 -84.0533 351° North 459 528 38,000  Level Atlanta Center
Thu 05:34:32 PM 31.5900 -84.0756 352° North 459 528 38,000  Level Atlanta Center
Thu 05:35:32 PM 31.7153 -84.0975 352° North 459 528 38,000  Level Atlanta Center
Thu 05:36:32 PM 31.8383 -84.1292 348° North 454 522 38,000  Level Atlanta Center
Thu 05:37:32 PM 31.9594 -84.1931 336° Northwest 434 499 38,000  Level Atlanta Center
Thu 05:38:32 PM 32.0700 -84.2594 333° Northwest 434 499 38,000  Level Atlanta Center
Thu 05:39:32 PM 32.1806 -84.3211 335° Northwest 439 505 38,000  Level Atlanta Center
Thu 05:40:32 PM 32.2867 -84.3828 334° Northwest 439 505 38,000  Level Atlanta Center
Thu 05:41:32 PM 32.3950 -84.4447 334° Northwest 428 493 38,000  Level Atlanta Center
Thu 05:42:32 PM 32.5014 -84.5042 335° Northwest 428 493 38,000  Level Atlanta Center
Thu 05:43:32 PM 32.6097 -84.5689 333° Northwest 428 493 38,000  Level Atlanta Center
Thu 05:44:32 PM 32.7158 -84.6289 335° Northwest 428 493 38,000  Level Atlanta Center
Thu 05:45:32 PM 32.8031 -84.7036 324° Northwest 428 493 38,000  Level Atlanta Center
Thu 05:46:32 PM 32.8944 -84.8008 318° Northwest 433 498 38,000  Level Atlanta Center
Thu 05:47:32 PM 32.9856 -84.8958 319° Northwest 433 498 38,000  Level Atlanta Center
Thu 05:48:32 PM 33.0767 -84.9908 319° Northwest 441 507 38,000  Level Atlanta Center
Thu 05:49:32 PM 33.1783 -85.0911 320° Northwest 435 501 38,000  Level Atlanta Center
Thu 05:50:32 PM 33.2692 -85.1767 322° Northwest 428 493 38,000  Level Atlanta Center
Thu 05:51:32 PM 33.3622 -85.2650 322° Northwest 428 493 38,000  Level Atlanta Center
Thu 05:52:32 PM 33.4553 -85.3536 322° Northwest 428 493 38,000  Level Atlanta Center
Thu 05:53:32 PM 33.5503 -85.4422 322° Northwest 428 493 38,000  Level Atlanta Center
Thu 05:54:32 PM 33.6433 -85.5311 322° Northwest 428 493 38,000  Level Atlanta Center
Thu 05:55:32 PM 33.7361 -85.6250 320° Northwest 428 493 38,000  Level Atlanta Center
Thu 05:56:32 PM 33.8183 -85.7092 320° Northwest 428 493 38,000  Level Atlanta Center
Thu 05:57:32 PM 33.9047 -85.8033 318° Northwest 420 483 38,000  Level Atlanta Center
Thu 05:58:32 PM 33.9911 -85.8903 320° Northwest 414 476 38,000  Level Atlanta Center
Thu 05:59:32 PM 34.0753 -85.9825 318° Northwest 414 476 38,000 200 Level Atlanta Center
Thu 06:00:32 PM 34.1553 -86.0772 316° Northwest 414 476 38,400 500 Climbing Atlanta Center
Thu 06:01:32 PM 34.2328 -86.1744 314° West 403 464 39,000 300 Climbing Atlanta Center
Thu 06:02:32 PM 34.3083 -86.2769 312° West 403 464 39,000  Level Atlanta Center
Thu 06:03:32 PM 34.3919 -86.3747 316° Northwest 403 464 39,000  Level Atlanta Center
Thu 06:04:32 PM 34.5008 -86.4686 325° Northwest 425 489 39,000  Level Atlanta Center
Thu 06:05:32 PM 34.6194 -86.4897 352° North 416 479 39,000  Level Atlanta Center
Thu 06:06:32 PM 34.7406 -86.4856 North 416 479 39,000  Level Atlanta Center
Thu 06:07:32 PM 34.8636 -86.4842 North 425 489 39,000  Level Atlanta Center
Thu 06:08:20 PM 34.9758 -86.4822 North 441 507 39,000  Level Memphis Center
Thu 06:09:20 PM 35.0867 -86.4822 360° North 425 489 39,000  Level Memphis Center
Thu 06:10:20 PM 35.2033 -86.4844 359° North 419 482 39,000  Level Memphis Center
Thu 06:11:20 PM 35.3242 -86.4814 North 430 495 39,000 -700 Level Memphis Center
Thu 06:12:20 PM 35.4494 -86.4781 North 430 495 37,600 -1,000 Descending Memphis Center
Thu 06:13:20 PM 35.5722 -86.4747 North 446 513 37,000 -300 Descending Memphis Center
Thu 06:14:20 PM 35.6931 -86.4717 North 436 502 37,000  Level Memphis Center
Thu 06:15:20 PM 35.8119 -86.4686 North 436 502 37,000  Level Memphis Center
Thu 06:16:20 PM 35.9389 -86.4653 North 441 507 37,000  Level Memphis Center
Thu 06:17:20 PM 36.0619 -86.4644 360° North 441 507 37,000  Level Memphis Center
Thu 06:18:20 PM 36.1828 -86.4586 North 436 502 37,000  Level Memphis Center
Thu 06:19:20 PM 36.3036 -86.4556 North 436 502 37,000  Level Memphis Center
Thu 06:20:20 PM 36.4244 -86.4522 North 436 502 37,000  Level Memphis Center
Thu 06:21:20 PM 36.5450 -86.4464 North 436 502 37,000  Level Memphis Center
Thu 06:22:20 PM 36.6639 -86.4458 360° North 430 495 37,000  Level Memphis Center
Thu 06:24:40 PM 36.9181 -86.4406 North 421 484 37,000  Level Indianapolis Center
Thu 06:25:42 PM 37.0558 -86.4356 North 420 483 37,000  Level Indianapolis Center
Thu 06:26:44 PM 37.1739 -86.4331 North 421 484 37,000  Level Indianapolis Center
Thu 06:27:46 PM 37.2931 -86.4311 North 423 487 37,000  Level Indianapolis Center
Thu 06:28:48 PM 37.4125 -86.4264 North 424 488 37,000  Level Indianapolis Center
Thu 06:29:50 PM 37.5314 -86.4239 North 422 486 37,000  Level Indianapolis Center
Thu 06:30:52 PM 37.6503 -86.4217 North 423 487 37,000  Level Indianapolis Center
Thu 06:31:54 PM 37.7694 -86.4181 North 423 487 37,000  Level Indianapolis Center
Thu 06:32:56 PM 37.9075 -86.4169 360° North 424 488 37,000  Level Indianapolis Center
Thu 06:33:58 PM 38.0244 -86.4139 North 421 484 37,000  Level Indianapolis Center
Thu 06:35:00 PM 38.1411 -86.4106 North 420 483 37,000  Level Indianapolis Center
Thu 06:36:02 PM 38.2567 -86.4081 North 417 480 37,000  Level Indianapolis Center
Thu 06:37:04 PM 38.3725 -86.4047 North 417 480 37,000  Level Indianapolis Center
Thu 06:38:06 PM 38.4878 -86.4028 North 415 478 37,000  Level Indianapolis Center
Thu 06:39:08 PM 38.6256 -86.3975 North 413 475 37,000  Level Indianapolis Center
Thu 06:40:10 PM 38.7392 -86.3953 North 409 471 37,000  Level Indianapolis Center
Thu 06:41:12 PM 38.8525 -86.3925 North 407 468 37,000  Level Indianapolis Center
Thu 06:42:14 PM 38.9742 -86.3889 North 408 470 37,000  Level Indianapolis Center
Thu 06:43:16 PM 39.0872 -86.3708 North 414 476 37,000 -400 Level Indianapolis Center
Thu 06:44:59 PM 39.2561 -86.2647 26° Northeast 427 491 35,900 -726 Descending Chicago Center
Thu 06:45:20 PM 39.3000 -86.2364 27° Northeast 427 491 35,500 -951 Descending Indianapolis Center
Thu 06:46:21 PM 39.4075 -86.1697 26° Northeast 430 495 34,600 -927 Descending Indianapolis Center
Thu 06:47:23 PM 39.5325 -86.0903 26° Northeast 423 487 33,600 -1,161 Descending Indianapolis Center
Thu 06:48:25 PM 39.6356 -86.0256 26° Northeast 418 481 32,200 -1,258 Descending Indianapolis Center
Thu 06:49:27 PM 39.7444 -85.9575 26° Northeast 438 504 31,000 -581 Descending Indianapolis Center
Thu 06:50:29 PM 39.8586 -85.8886 25° Northeast 455 524 31,000  Level Indianapolis Center
Thu 06:51:31 PM 39.9703 -85.8200 25° Northeast 450 518 31,000  Level Indianapolis Center
Thu 06:52:33 PM 40.1053 -85.7369 25° Northeast 450 518 31,000  Level Indianapolis Center
Thu 06:53:34 PM 40.2181 -85.6681 25° Northeast 449 517 31,000  Level Indianapolis Center
Thu 06:54:36 PM 40.3292 -85.5983 26° Northeast 445 512 31,000  Level Indianapolis Center
Thu 06:55:20 PM 40.4192 -85.5408 26° Northeast 447 514 31,000  Level Chicago Center
Thu 06:56:22 PM 40.5308 -85.4725 25° Northeast 445 512 31,000 -435 Level Chicago Center
Thu 06:57:24 PM 40.6417 -85.4014 26° Northeast 445 512 30,100 -2,468 Descending Chicago Center
Thu 06:58:26 PM 40.7619 -85.3236 26° Northeast 449 517 25,900 -2,903 Descending Chicago Center
Thu 06:59:28 PM 40.8719 -85.2492 27° Northeast 447 514 24,100 -1,500 Descending Chicago Center
Thu 07:00:30 PM 40.9781 -85.1831 25° Northeast 429 494 22,800 -968 Descending Chicago Center
Thu 07:01:32 PM 41.0750 -85.0842 38° Northeast 440 506 22,100 -576 Descending Chicago Center
Thu 07:02:35 PM 41.1844 -84.9633 40° Northeast 433 498 21,600 -528 Descending Chicago Center
Thu 07:03:37 PM 41.2756 -84.8683 38° Northeast 421 484 21,000 -290 Descending Chicago Center
Thu 07:04:39 PM 41.3653 -84.7725 39° Northeast 419 482 21,000  Level Chicago Center
Thu 07:05:41 PM 41.4558 -84.6747 39° Northeast 422 486 21,000 -145 Level Chicago Center
Thu 07:06:43 PM 41.5472 -84.5761 39° Northeast 425 489 20,700 -1,525 Descending Chicago Center
Thu 07:07:43 PM 41.6436 -84.4736 38° Northeast 416 479 17,900 -3,181 Descending Cleveland Center
Thu 07:08:06 PM 41.6789 -84.4172 50° Northeast 417 480 16,300 -2,700 Descending Cleveland Center
Thu 07:08:43 PM 41.7103 -84.3497 58° Northeast 403 464 15,200 -2,082 Descending Cleveland Center
Thu 07:09:44 PM 41.7542 -84.2214 65° Northeast 389 448 12,900 -1,600 Descending Cleveland Center
Thu 07:10:43 PM 41.7972 -84.1094 63° Northeast 355 409 12,000 -655 Descending Cleveland Center
Thu 07:11:43 PM 41.8397 -84.0172 58° Northeast 317 365 11,600 -720 Descending Cleveland Center
Thu 07:11:58 PM 41.8572 -83.9875 52° Northeast 290 334 11,100 -1,300 Descending Cleveland Center
Thu 07:12:43 PM 41.8719 -83.9183 74° East 297 342 10,300 -1,254 Descending Cleveland Center
Thu 07:13:05 PM 41.8897 -83.8775 60° Northeast 279 321 9,700 -1,400 Descending Cleveland Center
Thu 07:13:43 PM 41.9100 -83.8256 62° Northeast 280 322 8,900 -1,500 Descending Cleveland Center
Thu 07:14:05 PM 41.9297 -83.7847 57° Northeast 275 316 8,200 -1,400 Descending Cleveland Center
Thu 07:14:43 PM 41.9458 -83.7381 65° Northeast 274 315 7,500 -1,258 Descending Cleveland Center
Thu 07:15:07 PM 41.9658 -83.6942 58° Northeast 272 313 6,900 -1,279 Descending Cleveland Center
Thu 07:15:44 PM 41.9856 -83.6533 57° Northeast 268 308 6,200 -1,200 Descending Cleveland Center
Thu 07:16:02 PM 42.0011 -83.6150 61° Northeast 267 307 5,800 -1,300 Descending Cleveland Center
Thu 07:16:44 PM 42.0233 -83.5656 59° Northeast 263 303 4,900 -1,545 Descending Cleveland Center
Thu 07:17:08 PM 42.0514 -83.5333 40° Northeast 249 287 4,100 -2,000 Descending Cleveland Center

Login

Don't have an account? Register now (free) for customized features, flight alerts, and more!